createdAt,value
2022-10-06T00:01:09.791Z,1.90
2022-10-06T00:03:38.756Z,1.95
2022-10-06T00:06:07.525Z,1.60
2022-10-06T00:08:38.366Z,1.58
2022-10-06T00:11:06.843Z,1.95
2022-10-06T00:13:35.213Z,1.83
2022-10-06T00:16:04.864Z,2.20
2022-10-06T00:18:32.885Z,1.67
2022-10-06T00:21:04.171Z,1.95
2022-10-06T00:23:32.643Z,2.20
2022-10-06T00:26:00.572Z,2.45
2022-10-06T00:28:29.060Z,1.92
2022-10-06T00:30:58.155Z,2.03
2022-10-06T00:33:27.416Z,1.98
2022-10-06T00:35:58.547Z,1.80
2022-10-06T00:38:27.999Z,1.75
2022-10-06T00:40:56.408Z,2.08
2022-10-06T00:43:47.868Z,1.75
2022-10-06T00:46:21.532Z,1.75
2022-10-06T00:49:00.757Z,2.28
2022-10-06T00:51:30.561Z,1.88
2022-10-06T00:53:58.816Z,1.70
2022-10-06T00:56:27.143Z,1.75
2022-10-06T00:58:54.988Z,1.60
2022-10-06T01:01:22.981Z,1.90
2022-10-06T01:04:00.429Z,1.80
2022-10-06T01:06:28.826Z,1.95
2022-10-06T01:08:56.743Z,2.00
2022-10-06T01:11:24.667Z,2.40
2022-10-06T01:13:52.556Z,2.10
2022-10-06T01:16:24.344Z,2.05
2022-10-06T01:18:56.384Z,1.83
2022-10-06T01:21:30.919Z,1.90
2022-10-06T01:24:02.231Z,1.67
2022-10-06T01:26:32.822Z,2.03
2022-10-06T01:29:01.052Z,1.92
2022-10-06T01:31:30.367Z,2.17
2022-10-06T01:33:58.731Z,1.92
2022-10-06T01:36:27.093Z,1.92
2022-10-06T01:38:54.991Z,2.22
2022-10-06T01:41:25.628Z,2.40
2022-10-06T01:46:21.954Z,2.00
2022-10-06T01:48:50.265Z,1.92
2022-10-06T01:51:18.312Z,2.38
2022-10-06T01:53:46.179Z,2.00
2022-10-06T01:56:14.155Z,2.05
2022-10-06T01:58:44.420Z,2.58
2022-10-06T02:01:13.631Z,2.13
2022-10-06T02:03:42.059Z,2.30
2022-10-06T02:06:11.737Z,2.03
2022-10-06T02:08:40.040Z,1.93
2022-10-06T02:11:10.099Z,2.22
2022-10-06T02:13:43.744Z,2.28
2022-10-06T02:16:13.837Z,2.28
2022-10-06T02:18:43.134Z,2.00
2022-10-06T02:21:16.733Z,2.00
2022-10-06T02:23:44.805Z,2.13
2022-10-06T02:26:14.171Z,2.00
2022-10-06T02:28:42.200Z,2.00
2022-10-06T02:33:44.772Z,2.25
2022-10-06T02:36:14.882Z,2.20
2022-10-06T02:38:42.811Z,1.75
2022-10-06T02:41:11.686Z,2.13
2022-10-06T02:43:40.080Z,2.72
2022-10-06T02:46:10.456Z,2.22
2022-10-06T02:48:42.414Z,2.30
2022-10-06T02:51:13.668Z,2.55
2022-10-06T02:53:44.411Z,2.13
2022-10-06T02:56:16.048Z,2.63
2022-10-06T02:58:44.704Z,2.15
2022-10-06T03:01:19.917Z,2.20
2022-10-06T03:03:49.480Z,2.40
2022-10-06T03:06:24.172Z,2.38
2022-10-06T03:09:18.820Z,2.30
2022-10-06T03:11:46.741Z,2.33
2022-10-06T03:14:25.097Z,2.42
2022-10-06T03:16:54.890Z,2.38
2022-10-06T03:19:27.974Z,2.53
2022-10-06T03:21:56.518Z,2.63
2022-10-06T03:24:36.312Z,2.63
2022-10-06T03:27:04.377Z,2.60
2022-10-06T03:29:32.457Z,2.60
2022-10-06T03:32:00.525Z,2.72
2022-10-06T03:34:30.867Z,2.20
2022-10-06T03:37:00.389Z,2.10
2022-10-06T03:39:29.506Z,2.60
2022-10-06T03:41:57.472Z,2.58
2022-10-06T03:44:25.514Z,2.55
2022-10-06T03:46:53.579Z,2.42
2022-10-06T03:49:21.599Z,2.58
2022-10-06T03:51:50.885Z,2.42
2022-10-06T03:54:25.748Z,2.58
2022-10-06T03:56:54.740Z,2.83
2022-10-06T03:59:23.014Z,3.05
2022-10-06T04:01:53.053Z,2.80
2022-10-06T04:04:28.050Z,3.00
2022-10-06T04:07:02.687Z,2.95
2022-10-06T04:09:30.784Z,2.80
2022-10-06T04:11:58.755Z,2.65
2022-10-06T04:14:26.654Z,2.78
2022-10-06T04:16:57.124Z,3.05
2022-10-06T04:19:45.250Z,3.00
2022-10-06T04:22:15.719Z,3.13
2022-10-06T04:24:43.694Z,3.55
2022-10-06T04:27:29.666Z,3.67
2022-10-06T04:30:10.338Z,2.90
2022-10-06T04:32:38.478Z,3.08
2022-10-06T04:35:07.117Z,3.35
2022-10-06T04:37:36.443Z,3.13
2022-10-06T04:40:05.325Z,3.35
2022-10-06T04:42:35.405Z,2.60
2022-10-06T04:45:07.810Z,2.97
2022-10-06T04:47:37.426Z,2.85
2022-10-06T04:50:06.085Z,2.78
2022-10-06T04:52:33.933Z,2.88
2022-10-06T04:55:03.295Z,2.83
2022-10-06T04:57:31.365Z,3.40
2022-10-06T05:00:17.969Z,2.92
2022-10-06T05:02:47.530Z,2.80
2022-10-06T05:05:15.620Z,3.03
2022-10-06T05:07:44.962Z,3.65
2022-10-06T05:10:14.782Z,3.13
2022-10-06T05:12:43.083Z,4.05
2022-10-06T05:15:12.542Z,4.18
2022-10-06T05:17:40.869Z,3.80
2022-10-06T05:20:10.947Z,3.58
2022-10-06T05:22:39.137Z,4.30
2022-10-06T05:25:07.958Z,4.10
2022-10-06T05:27:37.182Z,3.83
2022-10-06T05:30:05.717Z,4.60
2022-10-06T05:32:36.109Z,4.05
2022-10-06T05:35:05.424Z,3.90
2022-10-06T05:37:33.354Z,4.18
2022-10-06T05:40:02.509Z,4.22
2022-10-06T05:42:31.102Z,3.03
2022-10-06T05:45:01.470Z,2.50
2022-10-06T05:47:29.899Z,1.90
2022-10-06T05:49:57.905Z,2.28
2022-10-06T05:52:25.985Z,1.00
2022-10-06T05:54:54.516Z,1.27
2022-10-06T05:57:22.617Z,1.60
2022-10-06T05:59:50.516Z,1.45
2022-10-06T06:02:20.307Z,1.30
2022-10-06T06:04:51.479Z,1.50
2022-10-06T06:07:19.637Z,1.40
2022-10-06T06:09:48.284Z,1.40
2022-10-06T06:12:16.611Z,1.77
2022-10-06T06:15:11.492Z,1.05
2022-10-06T06:17:56.667Z,2.08
2022-10-06T06:20:24.627Z,2.30
2022-10-06T06:22:53.424Z,2.45
2022-10-06T06:25:24.226Z,3.67
2022-10-06T06:27:52.141Z,1.95
2022-10-06T06:30:21.263Z,1.48
2022-10-06T06:32:49.189Z,1.05
2022-10-06T06:35:18.495Z,0.80
2022-10-06T06:37:48.839Z,0.65
2022-10-06T06:40:17.023Z,1.00
2022-10-06T06:42:44.951Z,0.80
2022-10-06T06:45:29.089Z,0.75
2022-10-06T06:48:15.463Z,1.05
2022-10-06T06:50:45.785Z,1.08
2022-10-06T06:53:16.166Z,1.02
2022-10-06T06:55:51.087Z,1.10
2022-10-06T06:58:21.740Z,2.13
2022-10-06T07:00:50.456Z,0.70
2022-10-06T07:03:32.966Z,0.73
2022-10-06T07:06:10.485Z,0.80
2022-10-06T07:08:42.661Z,0.88
2022-10-06T07:11:15.863Z,0.77
2022-10-06T07:13:46.064Z,1.60
2022-10-06T07:16:29.841Z,0.90
2022-10-06T07:19:15.797Z,0.98
2022-10-06T07:22:03.164Z,1.40
2022-10-06T07:24:49.018Z,1.10
2022-10-06T07:27:16.958Z,1.20
2022-10-06T07:29:46.782Z,1.30
2022-10-06T07:32:15.132Z,1.52
2022-10-06T07:37:17.684Z,1.38
2022-10-06T07:39:49.552Z,1.27
2022-10-06T07:42:18.467Z,1.08
2022-10-06T07:45:07.766Z,1.20
2022-10-06T07:47:38.890Z,1.13
2022-10-06T07:50:07.928Z,0.93
2022-10-06T07:52:39.363Z,0.90
2022-10-06T07:55:09.069Z,0.98
2022-10-06T07:57:46.047Z,0.75
2022-10-06T08:00:15.616Z,1.10
2022-10-06T08:02:43.576Z,1.73
2022-10-06T08:05:11.624Z,1.27
2022-10-06T08:07:40.989Z,1.73
2022-10-06T08:10:09.649Z,1.70
2022-10-06T08:12:40.103Z,1.20
2022-10-06T08:17:39.581Z,1.67
2022-10-06T08:20:09.787Z,0.90
2022-10-06T08:22:38.774Z,1.13
2022-10-06T08:25:10.735Z,0.90
2022-10-06T08:27:40.443Z,0.68
2022-10-06T08:30:09.269Z,0.82
2022-10-06T08:32:37.472Z,0.80
2022-10-06T08:35:05.632Z,0.82
2022-10-06T08:37:33.445Z,1.00
2022-10-06T08:40:01.316Z,0.90
2022-10-06T08:42:39.685Z,0.70
2022-10-06T08:45:14.522Z,0.73
2022-10-06T08:47:51.639Z,0.90
2022-10-06T08:50:21.348Z,1.05
2022-10-06T08:53:00.789Z,0.70
2022-10-06T08:55:36.233Z,0.65
2022-10-06T08:58:31.219Z,0.75
2022-10-06T09:01:11.159Z,0.93
2022-10-06T09:03:39.251Z,0.60
2022-10-06T09:06:14.852Z,0.98
2022-10-06T09:08:51.089Z,0.93
2022-10-06T09:11:38.094Z,0.50
2022-10-06T09:14:15.184Z,0.63
2022-10-06T09:16:47.869Z,0.80
2022-10-06T09:19:20.378Z,0.70
2022-10-06T09:21:51.345Z,0.80
2022-10-06T09:24:24.577Z,0.80
2022-10-06T09:26:53.042Z,1.27
2022-10-06T09:29:22.360Z,1.77
2022-10-06T09:31:51.013Z,0.75
2022-10-06T09:34:29.101Z,0.65
2022-10-06T09:37:02.025Z,0.70
2022-10-06T09:39:36.396Z,0.70
2022-10-06T09:42:12.400Z,0.73
2022-10-06T09:44:50.841Z,0.82
2022-10-06T09:47:34.742Z,1.35
2022-10-06T09:50:04.633Z,1.40
2022-10-06T09:52:32.520Z,0.68
2022-10-06T09:55:12.883Z,0.82
2022-10-06T09:57:50.054Z,1.25
2022-10-06T10:00:30.393Z,0.80
2022-10-06T10:03:00.966Z,0.65
2022-10-06T10:05:31.035Z,1.33
2022-10-06T10:08:02.757Z,0.50
2022-10-06T10:10:31.130Z,0.70
2022-10-06T10:13:00.665Z,0.50
2022-10-06T10:15:33.297Z,1.20
2022-10-06T10:18:04.055Z,0.80
2022-10-06T10:20:36.377Z,0.60
2022-10-06T10:23:08.288Z,0.60
2022-10-06T10:25:53.933Z,0.70
2022-10-06T10:28:51.612Z,0.70
2022-10-06T10:31:32.067Z,1.52
2022-10-06T10:34:23.080Z,0.60
2022-10-06T10:36:57.508Z,0.50
2022-10-06T10:39:33.472Z,0.50
2022-10-06T10:42:07.421Z,0.63
2022-10-06T10:44:38.860Z,0.60
2022-10-06T10:47:16.010Z,0.88
2022-10-06T10:49:49.631Z,0.73
2022-10-06T10:52:22.028Z,0.90
2022-10-06T10:55:02.166Z,0.70
2022-10-06T10:57:37.902Z,0.70
2022-10-06T11:00:09.568Z,0.95
2022-10-06T11:02:41.570Z,0.80
2022-10-06T11:05:17.548Z,0.60
2022-10-06T11:07:55.705Z,0.70
2022-10-06T11:10:27.717Z,0.88
2022-10-06T11:13:11.206Z,0.70
2022-10-06T11:15:57.492Z,0.80
2022-10-06T11:18:44.103Z,0.50
2022-10-06T11:21:14.831Z,0.30
2022-10-06T11:23:53.551Z,0.73
2022-10-06T11:27:00.529Z,0.63
2022-10-06T11:29:36.424Z,0.40
2022-10-06T11:32:17.769Z,0.77
2022-10-06T11:34:49.644Z,0.80
2022-10-06T11:37:26.292Z,0.70
2022-10-06T11:40:04.240Z,0.77
2022-10-06T11:42:42.104Z,0.70
2022-10-06T11:45:13.879Z,0.93
2022-10-06T11:48:00.471Z,1.08
2022-10-06T11:50:38.290Z,0.60
2022-10-06T11:53:07.449Z,0.60
2022-10-06T11:55:35.367Z,1.25
2022-10-06T11:58:40.747Z,0.60
2022-10-06T12:01:04.812Z,0.50
2022-10-06T12:03:48.237Z,1.05
2022-10-06T12:06:57.691Z,0.73
2022-10-06T12:09:51.703Z,0.75
2022-10-06T12:12:42.255Z,0.82
2022-10-06T12:18:30.717Z,0.50
2022-10-06T12:21:10.150Z,0.80
2022-10-06T12:23:48.322Z,0.65
2022-10-06T12:26:36.054Z,0.70
2022-10-06T12:29:22.450Z,0.50
2022-10-06T12:32:00.245Z,0.60
2022-10-06T12:35:00.281Z,0.82
2022-10-06T12:37:38.237Z,0.70
2022-10-06T12:40:40.280Z,0.52
2022-10-06T12:43:32.429Z,0.80
2022-10-06T12:46:03.249Z,0.57
2022-10-06T12:48:39.411Z,0.50
2022-10-06T12:51:19.168Z,0.63
2022-10-06T12:53:56.757Z,0.50
2022-10-06T12:56:29.313Z,0.50
2022-10-06T12:58:58.818Z,0.45
2022-10-06T13:01:28.244Z,0.97
2022-10-06T13:03:56.346Z,0.50
2022-10-06T13:06:26.070Z,0.60
2022-10-06T13:09:06.249Z,0.60
2022-10-06T13:11:34.176Z,0.50
2022-10-06T13:14:11.709Z,0.80
2022-10-06T13:16:41.858Z,0.90
2022-10-06T13:19:18.291Z,0.50
2022-10-06T13:21:47.531Z,0.50
2022-10-06T13:24:19.378Z,0.52
2022-10-06T13:26:48.122Z,0.65
2022-10-06T13:29:21.790Z,0.50
2022-10-06T13:31:53.098Z,0.75
2022-10-06T13:34:28.716Z,0.50
2022-10-06T13:36:57.436Z,1.05
2022-10-06T13:39:27.013Z,0.50
2022-10-06T13:41:59.225Z,0.40
2022-10-06T13:44:36.334Z,0.63
2022-10-06T13:47:06.843Z,0.45
2022-10-06T13:49:42.043Z,0.70
2022-10-06T13:52:17.967Z,0.55
2022-10-06T13:54:50.890Z,0.60
2022-10-06T13:57:35.643Z,0.40
2022-10-06T14:00:07.948Z,0.60
2022-10-06T14:02:36.516Z,0.80
2022-10-06T14:05:24.093Z,1.00
2022-10-06T14:07:52.570Z,0.60
2022-10-06T14:13:01.665Z,0.70
2022-10-06T14:15:40.426Z,0.88
2022-10-06T14:18:08.443Z,0.77
2022-10-06T14:20:46.915Z,0.60
2022-10-06T14:23:49.843Z,0.60
2022-10-06T14:26:19.446Z,0.88
2022-10-06T14:28:51.396Z,0.87
2022-10-06T14:31:21.730Z,0.75
2022-10-06T14:36:22.961Z,0.63
2022-10-06T14:38:52.345Z,0.68
2022-10-06T14:41:24.911Z,0.60
2022-10-06T14:43:56.658Z,0.85
2022-10-06T14:46:26.850Z,0.50
2022-10-06T14:48:55.332Z,1.00
2022-10-06T14:51:24.559Z,0.60
2022-10-06T14:53:54.363Z,0.73
2022-10-06T14:56:23.872Z,0.63
2022-10-06T14:58:53.011Z,0.50
2022-10-06T15:01:24.756Z,0.43
2022-10-06T15:03:54.825Z,0.50
2022-10-06T15:06:40.160Z,0.80
2022-10-06T15:09:09.876Z,0.47
2022-10-06T15:11:38.794Z,0.77
2022-10-06T15:14:08.654Z,0.63
2022-10-06T15:16:40.564Z,0.55
2022-10-06T15:19:10.998Z,0.60
2022-10-06T15:24:09.573Z,0.57
2022-10-06T15:26:55.290Z,0.70
2022-10-06T15:29:23.207Z,0.70
2022-10-06T15:31:53.141Z,0.70
2022-10-06T15:34:25.284Z,1.15
2022-10-06T15:36:54.321Z,0.65
2022-10-06T15:39:24.705Z,0.70
2022-10-06T15:44:21.219Z,0.57
2022-10-06T15:46:50.868Z,0.70
2022-10-06T15:49:20.917Z,0.65
2022-10-06T15:51:52.766Z,0.93
2022-10-06T15:54:23.673Z,0.80
2022-10-06T15:56:53.395Z,1.85
2022-10-06T15:59:24.066Z,1.50
2022-10-06T16:01:55.872Z,1.48
2022-10-06T16:04:31.446Z,0.90
2022-10-06T16:07:01.422Z,0.70
2022-10-06T16:09:31.173Z,1.17
2022-10-06T16:12:01.724Z,1.27
2022-10-06T16:14:30.359Z,2.45
2022-10-06T16:17:01.964Z,3.90
2022-10-06T16:19:32.226Z,1.05
2022-10-06T16:22:01.981Z,1.20
2022-10-06T16:24:29.883Z,1.45
2022-10-06T16:26:59.836Z,0.70
2022-10-06T16:29:28.883Z,0.65
2022-10-06T16:31:57.507Z,0.70
2022-10-06T16:34:30.378Z,0.63
2022-10-06T16:36:58.366Z,0.70
2022-10-06T16:39:27.741Z,0.77
2022-10-06T16:41:55.761Z,0.63
2022-10-06T16:44:23.768Z,0.68
2022-10-06T16:46:51.662Z,0.70
2022-10-06T16:49:19.866Z,0.98
2022-10-06T16:51:47.839Z,0.80
2022-10-06T16:54:18.217Z,0.70
2022-10-06T16:56:51.451Z,0.55
2022-10-06T16:59:20.882Z,1.00
2022-10-06T17:01:50.200Z,0.63
2022-10-06T17:04:20.090Z,0.85
2022-10-06T17:06:50.044Z,1.20
2022-10-06T17:09:19.305Z,3.03
2022-10-06T17:11:50.153Z,4.50
2022-10-06T17:14:19.034Z,2.63
2022-10-06T17:16:48.218Z,3.42
2022-10-06T17:19:17.442Z,2.80
2022-10-06T17:21:48.121Z,4.25
2022-10-06T17:24:18.584Z,4.13
2022-10-06T17:26:49.392Z,2.67
2022-10-06T17:29:19.374Z,3.22
2022-10-06T17:31:48.379Z,4.72
2022-10-06T17:34:21.160Z,4.55
2022-10-06T17:36:51.621Z,6.18
2022-10-06T17:39:21.189Z,5.18
2022-10-06T17:41:52.611Z,5.80
2022-10-06T17:44:23.244Z,6.72
2022-10-06T17:46:53.916Z,6.30
2022-10-06T17:49:23.958Z,5.32
2022-10-06T17:51:53.390Z,3.70
2022-10-06T17:54:23.830Z,4.65
2022-10-06T17:56:54.804Z,6.35
2022-10-06T17:59:24.622Z,12.30
2022-10-06T18:01:56.339Z,6.53
2022-10-06T18:04:24.964Z,6.63
2022-10-06T18:06:55.006Z,5.97
2022-10-06T18:09:23.119Z,6.30
2022-10-06T18:11:54.897Z,9.98
2022-10-06T18:14:26.138Z,31.77
2022-10-06T18:16:57.679Z,33.88
2022-10-06T18:19:29.982Z,19.58
2022-10-06T18:22:00.567Z,8.15
2022-10-06T18:24:30.350Z,5.25
2022-10-06T18:27:00.930Z,4.00
2022-10-06T18:32:16.048Z,3.50
2022-10-06T18:37:35.281Z,3.40
2022-10-06T18:40:06.177Z,3.55
2022-10-06T18:42:34.517Z,4.93
2022-10-06T18:45:21.365Z,4.28
2022-10-06T18:48:07.004Z,3.45
2022-10-06T18:50:35.141Z,3.28
2022-10-06T18:53:04.452Z,3.95
2022-10-06T18:55:32.605Z,4.18
2022-10-06T18:58:00.464Z,3.42
2022-10-06T19:00:29.710Z,4.00
2022-10-06T19:02:57.713Z,3.55
2022-10-06T19:05:25.802Z,3.33
2022-10-06T19:07:54.506Z,3.83
2022-10-06T19:10:22.957Z,4.70
2022-10-06T19:12:50.898Z,3.97
2022-10-06T19:15:21.136Z,3.78
2022-10-06T19:17:51.086Z,4.20
2022-10-06T19:20:19.805Z,4.33
2022-10-06T19:22:48.344Z,3.58
2022-10-06T19:25:18.740Z,4.60
2022-10-06T19:27:47.018Z,3.63
2022-10-06T19:30:15.887Z,3.53
2022-10-06T19:32:44.514Z,3.57
2022-10-06T19:35:13.731Z,3.65
2022-10-06T19:37:42.081Z,3.15
2022-10-06T19:40:11.415Z,3.17
2022-10-06T19:42:47.479Z,3.28
2022-10-06T19:45:16.484Z,3.22
2022-10-06T19:47:46.445Z,4.00
2022-10-06T19:52:45.411Z,3.53
2022-10-06T19:55:13.422Z,3.20
2022-10-06T19:57:41.801Z,3.33
2022-10-06T20:00:11.237Z,4.57
2022-10-06T20:02:44.783Z,2.80
2022-10-06T20:05:14.237Z,3.25
2022-10-06T20:07:45.407Z,2.85
2022-10-06T20:10:14.808Z,3.13
2022-10-06T20:12:43.118Z,4.20
2022-10-06T20:15:12.824Z,3.97
2022-10-06T20:17:42.283Z,3.97
2022-10-06T20:20:10.522Z,3.90
2022-10-06T20:22:38.371Z,3.65
2022-10-06T20:25:08.050Z,3.92
2022-10-06T20:27:35.944Z,5.00
2022-10-06T20:30:04.016Z,5.07
2022-10-06T20:32:31.865Z,5.47
2022-10-06T20:35:00.121Z,5.85
2022-10-06T20:37:28.039Z,4.20
2022-10-06T20:40:13.507Z,5.30
2022-10-06T20:42:45.061Z,4.72
2022-10-06T20:45:13.166Z,5.28
2022-10-06T20:47:41.405Z,4.30
2022-10-06T20:50:10.821Z,4.30
2022-10-06T20:52:38.681Z,4.30
2022-10-06T20:55:08.742Z,3.97
2022-10-06T20:57:36.897Z,3.72
2022-10-06T21:00:07.284Z,4.45
2022-10-06T21:02:35.391Z,3.90
2022-10-06T21:05:03.474Z,3.92
2022-10-06T21:07:31.704Z,3.45
2022-10-06T21:09:59.776Z,3.50
2022-10-06T21:12:28.607Z,3.60
2022-10-06T21:14:57.529Z,3.70
2022-10-06T21:17:26.858Z,4.38
2022-10-06T21:19:54.884Z,4.15
2022-10-06T21:22:22.822Z,3.35
2022-10-06T21:24:50.836Z,4.47
2022-10-06T21:27:19.265Z,4.35
2022-10-06T21:29:47.830Z,3.80
2022-10-06T21:32:15.839Z,4.40
2022-10-06T21:34:45.151Z,4.70
2022-10-06T21:37:13.906Z,4.68
2022-10-06T21:39:42.313Z,4.93
2022-10-06T21:42:10.408Z,3.60
2022-10-06T21:44:38.408Z,3.67
2022-10-06T21:47:06.696Z,3.22
2022-10-06T21:49:34.760Z,2.95
2022-10-06T21:52:05.525Z,3.70
2022-10-06T21:54:33.620Z,3.47
2022-10-06T21:57:01.655Z,2.92
2022-10-06T21:59:29.644Z,3.35
2022-10-06T22:01:58.317Z,3.38
2022-10-06T22:04:26.506Z,2.92
2022-10-06T22:06:54.452Z,2.72
2022-10-06T22:09:24.033Z,2.88
2022-10-06T22:11:53.004Z,2.55
2022-10-06T22:14:21.263Z,2.58
2022-10-06T22:16:49.552Z,2.58
2022-10-06T22:19:18.515Z,2.15
2022-10-06T22:21:49.262Z,2.75
2022-10-06T22:24:19.473Z,2.42
2022-10-06T22:26:49.856Z,2.40
2022-10-06T22:29:19.255Z,2.40
2022-10-06T22:31:48.737Z,2.33
2022-10-06T22:34:18.905Z,2.65
2022-10-06T22:36:47.160Z,2.35
2022-10-06T22:39:15.224Z,3.20
2022-10-06T22:41:43.415Z,3.80
2022-10-06T22:44:12.835Z,4.18
2022-10-06T22:46:41.103Z,3.92
2022-10-06T22:49:09.139Z,3.72
2022-10-06T22:51:37.258Z,4.10
2022-10-06T22:54:05.708Z,4.57
2022-10-06T22:56:35.217Z,3.42
2022-10-06T22:59:03.650Z,3.60
2022-10-06T23:01:33.835Z,3.55
2022-10-06T23:04:01.951Z,3.90
2022-10-06T23:06:31.455Z,3.38
2022-10-06T23:09:00.246Z,3.60
2022-10-06T23:11:28.748Z,3.50
2022-10-06T23:13:56.803Z,3.47
2022-10-06T23:16:24.984Z,3.17
2022-10-06T23:18:55.220Z,3.22
2022-10-06T23:21:27.602Z,3.00
2022-10-06T23:23:59.187Z,2.65
2022-10-06T23:26:27.735Z,2.95
2022-10-06T23:28:57.728Z,2.53
2022-10-06T23:31:26.800Z,2.90
2022-10-06T23:33:56.674Z,2.85
2022-10-06T23:36:24.833Z,2.58
2022-10-06T23:38:52.867Z,3.15
2022-10-06T23:41:21.546Z,2.90
2022-10-06T23:43:49.908Z,2.83
2022-10-06T23:46:18.600Z,2.63
2022-10-06T23:48:46.601Z,2.40
2022-10-06T23:51:16.918Z,2.78
2022-10-06T23:53:45.145Z,2.70
2022-10-06T23:56:13.814Z,2.60
2022-10-06T23:58:42.828Z,2.70
